• Join FlightAware (Why Join?)
  • Login
  • US Flag 
10:13AM EDT


 

Airport Tracker/Info


-or-


 

Live Flight TrackerFlight Track Log ✈ N329SK ✈ 28-Apr-2012 ✈ KAVL - KFLO

Flight Track Log - Related Links

Times and Time Zones

All times are in EDT time to prevent confusion due to time zone crossing. See the N329SK flight status page for this flight to view local times or setup timezone preferences in your user account.

Time Position Orientation Groundspeed Altitude Reporting Facility
EDT Latitude Longitude Course Direction KTS MPH feet Rate Location/Type
05:12PM 35.4286 -82.5270 148° Southeast  Level FlightAware Approximate
05:13PM 35.3642 -82.4775 127° Southeast 168 193 5,600  Level Atlanta Center
05:14PM 35.3322 -82.4247 125° Southeast 179 206 7,000 1,380 Climbing Atlanta Center
05:15PM 35.3022 -82.3719 126° Southeast 186 214 8,400 1,320 Climbing Atlanta Center
05:16PM 35.2722 -82.3217 127° Southeast 194 223 9,700 1,260 Climbing Atlanta Center
05:17PM 35.2381 -82.2664 127° Southeast 194 223 11,000 1,260 Climbing Atlanta Center
05:18PM 35.2039 -82.2111 127° Southeast 201 231 12,300 1,140 Climbing Atlanta Center
05:19PM 35.1697 -82.1561 126° Southeast 201 231 13,300 1,020 Climbing Atlanta Center
05:20PM 35.1353 -82.0983 128° Southeast 201 231 14,400 1,020 Climbing Atlanta Center
05:21PM 35.0969 -82.0383 128° Southeast 211 243 15,400 1,020 Climbing Atlanta Center
05:22PM 35.0583 -81.9783 127° Southeast 222 255 16,500 840 Climbing Atlanta Center
05:23PM 35.0219 -81.9183 112° Southeast 225 259 17,100 240 Climbing Atlanta Center
05:24PM 34.9956 -81.8406 113° Southeast 241 277 17,000 -60 Descending Atlanta Center
05:25PM 34.9647 -81.7525 115° Southeast 270 311 17,000  Level Atlanta Center
05:26PM 34.9317 -81.6647 114° Southeast 282 325 17,000  Level Atlanta Center
05:27PM 34.8986 -81.5747 115° Southeast 282 325 17,000  Level Atlanta Center
05:28PM 34.8633 -81.4844 115° Southeast 287 330 17,000  Level Atlanta Center
05:29PM 34.8303 -81.3969 115° Southeast 287 330 17,000  Level Atlanta Center
05:30PM 34.7969 -81.3094 114° Southeast 287 330 17,000  Level Atlanta Center
05:32PM 34.7231 -81.1117 116° Southeast 308 354 17,000  Level Jacksonville Center
05:33PM 34.6883 -81.0267 111° Southeast 297 342 17,000  Level Jacksonville Center
05:34PM 34.6578 -80.9314 119° Southeast 299 344 17,000  Level Jacksonville Center
05:35PM 34.6253 -80.8589 114° Southeast 292 336 17,000  Level Jacksonville Center
05:36PM 34.5925 -80.7714 112° Southeast 279 321 17,000 -540 Level Jacksonville Center
05:37PM 34.5619 -80.6814 115° Southeast 276 318 16,000 -1,260 Descending Jacksonville Center
05:38PM 34.5269 -80.5917 117° Southeast 289 333 14,500 -1,500 Descending Jacksonville Center
05:39PM 34.4897 -80.5019 120° Southeast 296 341 13,000 -1,500 Descending Jacksonville Center
05:40PM 34.4483 -80.4150 118° Southeast 290 334 11,500 -1,500 Descending Jacksonville Center
05:41PM 34.4114 -80.3306 121° Southeast 285 328 10,000 -1,500 Descending Jacksonville Center
05:42PM 34.3719 -80.2511 117° Southeast 279 321 8,500 -1,500 Descending Jacksonville Center
05:43PM 34.3392 -80.1742 116° Southeast 267 307 7,000 -1,500 Descending Jacksonville Center
05:44PM 34.3106 -80.1022 127° Southeast 250 288 5,500 -1,500 Descending Jacksonville Center
05:45PM 34.2717 -80.0406 126° Southeast 244 281 4,000 -1,200 Descending Jacksonville Center
05:46PM 34.2281 -79.9667 126° Southeast 238 274 3,100 3,480 Descending Jacksonville Center
05:47PM 34.1911 -79.9053 126° Southeast 238 274 11,000 7,860 Climbing Jacksonville Center